createdAt,value
2023-01-15T00:01:27.405Z,99717.19
2023-01-15T00:04:03.950Z,99714.20
2023-01-15T00:06:40.258Z,99707.24
2023-01-15T00:09:17.931Z,99695.59
2023-01-15T00:11:51.377Z,99693.44
2023-01-15T00:14:25.020Z,99685.66
2023-01-15T00:16:59.055Z,99677.20
2023-01-15T00:19:32.794Z,99681.82
2023-01-15T00:22:06.579Z,99673.30
2023-01-15T00:24:57.743Z,99661.02
2023-01-15T00:27:41.743Z,99664.48
2023-01-15T00:30:17.698Z,99647.82
2023-01-15T00:32:51.294Z,99658.65
2023-01-15T00:35:26.681Z,99653.08
2023-01-15T00:38:00.817Z,99645.54
2023-01-15T00:40:34.327Z,99637.26
2023-01-15T00:43:08.551Z,99650.66
2023-01-15T00:45:43.033Z,99643.70
2023-01-15T00:48:16.978Z,99631.13
2023-01-15T00:50:52.262Z,99635.17
2023-01-15T00:53:26.089Z,99631.05
2023-01-15T00:56:00.189Z,99632.08
2023-01-15T00:58:35.984Z,99620.25
2023-01-15T01:01:10.332Z,99617.63
2023-01-15T01:03:49.208Z,99610.21
2023-01-15T01:06:23.965Z,99615.00
2023-01-15T01:08:57.531Z,99603.24
2023-01-15T01:11:34.709Z,99599.63
2023-01-15T01:14:08.602Z,99600.58
2023-01-15T01:16:43.887Z,99602.52
2023-01-15T01:19:20.402Z,99603.14
2023-01-15T01:21:55.113Z,99601.63
2023-01-15T01:24:28.680Z,99603.48
2023-01-15T01:27:02.278Z,99595.52
2023-01-15T01:29:35.731Z,99596.73
2023-01-15T01:32:10.445Z,99593.76
2023-01-15T01:34:44.448Z,99594.30
2023-01-15T01:37:17.962Z,99594.48
2023-01-15T01:39:52.963Z,99581.95
2023-01-15T01:42:27.135Z,99585.19
2023-01-15T01:45:14.426Z,99580.33
2023-01-15T01:47:49.173Z,99573.30
2023-01-15T01:50:23.457Z,99560.30
2023-01-15T01:53:06.112Z,99563.55
2023-01-15T01:55:40.710Z,99552.32
2023-01-15T01:58:16.591Z,99540.58
2023-01-15T02:00:52.607Z,99526.77
2023-01-15T02:03:32.982Z,99519.52
2023-01-15T02:06:11.803Z,99513.06
2023-01-15T02:08:45.694Z,99513.35
2023-01-15T02:11:21.957Z,99520.45
2023-01-15T02:14:01.384Z,99516.55
2023-01-15T02:16:42.139Z,99521.16
2023-01-15T02:19:29.758Z,99523.52
2023-01-15T02:22:13.432Z,99520.70
2023-01-15T02:24:59.306Z,99520.64
2023-01-15T02:27:34.334Z,99514.56
2023-01-15T02:30:15.945Z,99509.92
2023-01-15T02:33:02.792Z,99515.09
2023-01-15T02:35:38.729Z,99523.11
2023-01-15T02:38:17.163Z,99517.70
2023-01-15T02:40:55.641Z,99515.55
2023-01-15T02:43:36.444Z,99496.13
2023-01-15T02:46:11.585Z,99506.95
2023-01-15T02:48:47.872Z,99497.51
2023-01-15T02:51:25.817Z,99485.64
2023-01-15T02:54:04.066Z,99488.70
2023-01-15T02:56:42.258Z,99458.95
2023-01-15T02:59:19.948Z,99447.88
2023-01-15T03:01:59.098Z,99442.98
2023-01-15T03:04:39.540Z,99450.61
2023-01-15T03:07:21.125Z,99445.84
2023-01-15T03:09:56.427Z,99445.05
2023-01-15T03:12:58.343Z,99427.91
2023-01-15T03:15:59.033Z,99422.23
2023-01-15T03:18:37.715Z,99412.31
2023-01-15T03:21:15.227Z,99407.17
2023-01-15T03:23:54.268Z,99416.30
2023-01-15T03:26:29.267Z,99413.12
2023-01-15T03:29:06.168Z,99424.86
2023-01-15T03:31:40.674Z,99419.43
2023-01-15T03:34:14.916Z,99414.98
2023-01-15T03:36:49.927Z,99401.95
2023-01-15T03:39:25.171Z,99388.98
2023-01-15T03:42:18.364Z,99392.33
2023-01-15T03:45:03.032Z,99387.45
2023-01-15T03:47:48.198Z,99383.73
2023-01-15T03:50:34.450Z,99389.02
2023-01-15T03:53:17.869Z,99381.90
2023-01-15T03:56:17.960Z,99392.36
2023-01-15T03:59:00.276Z,99379.41
2023-01-15T04:01:44.419Z,99358.36
2023-01-15T04:04:19.735Z,99353.33
2023-01-15T04:06:54.226Z,99360.87
2023-01-15T04:09:29.157Z,99358.89
2023-01-15T04:12:05.950Z,99345.89
2023-01-15T04:14:44.207Z,99348.14
2023-01-15T04:17:23.855Z,99350.19
2023-01-15T04:19:58.356Z,99337.17
2023-01-15T04:22:32.521Z,99342.67
2023-01-15T04:25:07.016Z,99331.07
2023-01-15T04:27:40.600Z,99319.80
2023-01-15T04:30:17.706Z,99310.16
2023-01-15T04:32:53.867Z,99297.63
2023-01-15T04:35:27.531Z,99285.17
2023-01-15T04:38:02.200Z,99284.16
2023-01-15T04:40:53.759Z,99281.94
2023-01-15T04:43:45.252Z,99276.39
2023-01-15T04:46:22.286Z,99280.34
2023-01-15T04:48:56.329Z,99280.26
2023-01-15T04:51:30.114Z,99272.49
2023-01-15T04:54:05.870Z,99272.39
2023-01-15T04:56:44.035Z,99269.26
2023-01-15T04:59:18.588Z,99266.20
2023-01-15T05:02:03.101Z,99260.27
2023-01-15T05:04:39.195Z,99254.02
2023-01-15T05:07:13.213Z,99260.03
2023-01-15T05:09:47.944Z,99259.68
2023-01-15T05:12:21.628Z,99255.31
2023-01-15T05:14:55.076Z,99251.59
2023-01-15T05:17:28.483Z,99250.45
2023-01-15T05:20:02.425Z,99247.77
2023-01-15T05:22:36.583Z,99242.20
2023-01-15T05:25:10.891Z,99228.48
2023-01-15T05:27:45.057Z,99231.76
2023-01-15T05:30:19.820Z,99240.20
2023-01-15T05:32:53.562Z,99243.96
2023-01-15T05:35:27.147Z,99238.10
2023-01-15T05:38:00.642Z,99233.61
2023-01-15T05:40:34.141Z,99234.09
2023-01-15T05:43:08.827Z,99234.38
2023-01-15T05:45:42.420Z,99236.89
2023-01-15T05:48:16.345Z,99240.45
2023-01-15T05:50:49.951Z,99239.26
2023-01-15T05:53:23.660Z,99240.14
2023-01-15T05:55:57.049Z,99242.66
2023-01-15T05:58:30.967Z,99225.97
2023-01-15T06:01:07.628Z,99221.95
2023-01-15T06:03:42.246Z,99222.36
2023-01-15T06:06:19.172Z,99220.43
2023-01-15T06:08:52.974Z,99218.33
2023-01-15T06:11:26.500Z,99208.55
2023-01-15T06:14:00.523Z,99206.61
2023-01-15T06:16:34.639Z,99200.55
2023-01-15T06:19:09.553Z,99197.86
2023-01-15T06:21:43.459Z,99191.63
2023-01-15T06:24:18.399Z,99186.52
2023-01-15T06:26:52.229Z,99189.70
2023-01-15T06:29:26.069Z,99186.89
2023-01-15T06:31:59.680Z,99180.98
2023-01-15T06:34:33.673Z,99182.52
2023-01-15T06:37:07.834Z,99187.60
2023-01-15T06:39:41.522Z,99188.71
2023-01-15T06:42:32.252Z,99192.48
2023-01-15T06:45:22.651Z,99201.05
2023-01-15T06:47:56.476Z,99200.11
2023-01-15T06:50:30.323Z,99187.86
2023-01-15T06:53:04.220Z,99173.98
2023-01-15T06:55:37.774Z,99173.67
2023-01-15T06:58:11.547Z,99177.48
2023-01-15T07:00:47.385Z,99173.73
2023-01-15T07:03:21.285Z,99173.60
2023-01-15T07:05:54.696Z,99177.92
2023-01-15T07:08:29.477Z,99165.98
2023-01-15T07:11:08.201Z,99161.13
2023-01-15T07:13:42.167Z,99159.33
2023-01-15T07:16:28.822Z,99162.63
2023-01-15T07:19:02.730Z,99163.88
2023-01-15T07:21:36.821Z,99166.08
2023-01-15T07:24:12.464Z,99168.91
2023-01-15T07:26:47.188Z,99163.15
2023-01-15T07:29:21.032Z,99157.90
2023-01-15T07:31:55.755Z,99151.91
2023-01-15T07:34:29.258Z,99151.23
2023-01-15T07:37:02.963Z,99148.66
2023-01-15T07:39:36.720Z,99144.69
2023-01-15T07:42:29.089Z,99143.48
2023-01-15T07:45:20.193Z,99144.00
2023-01-15T07:48:27.728Z,99138.82
2023-01-15T07:51:02.182Z,99136.77
2023-01-15T07:53:35.988Z,99134.83
2023-01-15T07:56:10.582Z,99133.60
2023-01-15T07:58:49.810Z,99134.04
2023-01-15T08:01:23.901Z,99131.36
2023-01-15T08:03:57.870Z,99135.23
2023-01-15T08:06:31.491Z,99130.03
2023-01-15T08:09:05.855Z,99131.15
2023-01-15T08:11:57.402Z,99132.42
2023-01-15T08:14:48.840Z,99132.35
2023-01-15T08:17:22.644Z,99127.17
2023-01-15T08:19:56.286Z,99136.09
2023-01-15T08:22:30.176Z,99124.72
2023-01-15T08:25:04.126Z,99124.17
2023-01-15T08:27:37.835Z,99118.82
2023-01-15T08:30:15.224Z,99115.73
2023-01-15T08:32:49.028Z,99116.45
2023-01-15T08:35:22.918Z,99110.89
2023-01-15T08:37:56.694Z,99108.49
2023-01-15T08:40:30.612Z,99106.52
2023-01-15T08:43:04.309Z,99110.92
2023-01-15T08:45:38.453Z,99105.08
2023-01-15T08:48:12.299Z,99104.03
2023-01-15T08:50:46.217Z,99104.35
2023-01-15T08:53:20.625Z,99100.70
2023-01-15T08:55:54.702Z,99108.55
2023-01-15T08:58:28.950Z,99105.56
2023-01-15T09:01:08.804Z,99106.47
2023-01-15T09:03:42.992Z,99108.61
2023-01-15T09:06:17.041Z,99108.92
2023-01-15T09:08:50.829Z,99106.23
2023-01-15T09:11:24.695Z,99105.73
2023-01-15T09:13:58.595Z,99101.04
2023-01-15T09:16:33.381Z,99102.21
2023-01-15T09:19:08.032Z,99099.06
2023-01-15T09:21:41.727Z,99094.95
2023-01-15T09:24:15.712Z,99090.91
2023-01-15T09:26:49.384Z,99092.06
2023-01-15T09:29:23.002Z,99088.08
2023-01-15T09:31:57.016Z,99091.62
2023-01-15T09:34:30.436Z,99094.16
2023-01-15T09:37:03.984Z,99077.45
2023-01-15T09:39:38.760Z,99080.06
2023-01-15T09:42:30.568Z,99093.18
2023-01-15T09:45:18.795Z,99081.55
2023-01-15T09:48:18.154Z,99082.39
2023-01-15T09:51:07.711Z,99080.39
2023-01-15T09:54:20.476Z,99080.09
2023-01-15T09:56:56.196Z,99072.64
2023-01-15T09:59:36.521Z,99070.73
2023-01-15T10:02:21.976Z,99069.30
2023-01-15T10:05:02.661Z,99065.86
2023-01-15T10:07:43.325Z,99058.44
2023-01-15T10:10:21.599Z,99059.16
2023-01-15T10:13:02.480Z,99061.16
2023-01-15T10:15:43.020Z,99055.94
2023-01-15T10:18:20.708Z,99054.81
2023-01-15T10:21:03.538Z,99049.80
2023-01-15T10:23:45.724Z,99046.07
2023-01-15T10:26:33.645Z,99047.17
2023-01-15T10:29:16.216Z,99040.91
2023-01-15T10:32:02.689Z,99039.30
2023-01-15T10:35:06.438Z,99033.44
2023-01-15T10:37:44.992Z,99030.88
2023-01-15T10:40:33.766Z,99028.86
2023-01-15T10:43:14.773Z,99026.67
2023-01-15T10:45:53.042Z,99023.86
2023-01-15T10:48:32.652Z,99023.01
2023-01-15T10:51:15.932Z,99019.14
2023-01-15T10:53:53.961Z,99012.08
2023-01-15T10:56:37.429Z,99009.75
2023-01-15T10:59:18.426Z,99007.78
2023-01-15T11:01:55.774Z,99009.16
2023-01-15T11:04:33.481Z,99008.46
2023-01-15T11:07:11.397Z,99007.81
2023-01-15T11:09:45.994Z,99007.02
2023-01-15T11:12:43.453Z,99001.89
2023-01-15T11:15:45.178Z,99000.80
2023-01-15T11:18:46.524Z,98996.91
2023-01-15T11:21:23.240Z,98991.63
2023-01-15T11:24:00.228Z,98989.60
2023-01-15T11:26:35.891Z,98988.88
2023-01-15T11:29:24.416Z,98994.61
2023-01-15T11:31:58.247Z,98994.36
2023-01-15T11:34:32.302Z,98987.05
2023-01-15T11:37:09.186Z,98985.52
2023-01-15T11:39:53.670Z,98980.02
2023-01-15T11:42:45.289Z,98985.50
2023-01-15T11:45:39.802Z,98977.50
2023-01-15T11:48:38.117Z,98977.32
2023-01-15T11:51:15.617Z,98974.04
2023-01-15T11:53:52.237Z,98971.56
2023-01-15T11:56:31.759Z,98969.13
2023-01-15T11:59:15.141Z,98964.66
2023-01-15T12:01:59.796Z,98964.27
2023-01-15T12:04:47.018Z,98963.59
2023-01-15T12:07:24.672Z,98960.31
2023-01-15T12:10:19.503Z,98956.02
2023-01-15T12:13:08.017Z,98956.55
2023-01-15T12:15:44.429Z,98957.95
2023-01-15T12:18:51.921Z,98956.25
2023-01-15T12:21:51.534Z,98950.21
2023-01-15T12:24:51.609Z,98956.33
2023-01-15T12:27:37.932Z,98950.26
2023-01-15T12:30:21.253Z,98952.88
2023-01-15T12:33:02.636Z,98957.39
2023-01-15T12:35:39.804Z,98957.91
2023-01-15T12:38:23.261Z,98954.93
2023-01-15T12:41:02.291Z,98960.11
2023-01-15T12:43:53.311Z,98955.85
2023-01-15T12:46:33.055Z,98954.39
2023-01-15T12:49:16.564Z,98955.09
2023-01-15T12:51:57.058Z,98955.00
2023-01-15T12:54:38.311Z,98961.77
2023-01-15T12:57:18.360Z,98961.08
2023-01-15T12:59:56.094Z,98953.39
2023-01-15T13:02:37.843Z,98948.08
2023-01-15T13:05:22.538Z,98953.70
2023-01-15T13:08:03.295Z,98948.34
2023-01-15T13:10:37.368Z,98953.48
2023-01-15T13:13:19.653Z,98953.77
2023-01-15T13:16:14.525Z,98954.26
2023-01-15T13:19:06.239Z,98952.73
2023-01-15T13:21:42.979Z,98958.43
2023-01-15T13:24:36.999Z,98955.84
2023-01-15T13:27:27.692Z,98951.58
2023-01-15T13:30:23.429Z,98946.13
2023-01-15T13:33:03.178Z,98958.79
2023-01-15T13:35:44.376Z,98953.34
2023-01-15T13:38:22.218Z,98956.76
2023-01-15T13:40:58.483Z,98958.71
2023-01-15T13:43:39.660Z,98960.67
2023-01-15T13:46:21.478Z,98962.92
2023-01-15T13:48:56.107Z,98963.67
2023-01-15T13:51:38.164Z,98963.90
2023-01-15T13:54:17.255Z,98963.36
2023-01-15T13:56:51.135Z,98967.73
2023-01-15T13:59:44.550Z,98967.50
2023-01-15T14:02:30.372Z,98966.08
2023-01-15T14:05:26.640Z,98967.71
2023-01-15T14:08:02.231Z,98976.43
2023-01-15T14:10:43.597Z,98973.59
2023-01-15T14:13:45.107Z,98984.05
2023-01-15T14:16:29.612Z,98975.79
2023-01-15T14:19:31.772Z,98984.46
2023-01-15T14:22:21.794Z,98984.36
2023-01-15T14:25:21.756Z,98991.83
2023-01-15T14:28:09.523Z,98998.11
2023-01-15T14:31:08.074Z,98996.98
2023-01-15T14:33:55.590Z,99001.98
2023-01-15T14:36:37.303Z,99002.15
2023-01-15T14:39:39.414Z,99003.40
2023-01-15T14:42:36.959Z,99004.88
2023-01-15T14:45:27.624Z,98990.58
2023-01-15T14:48:03.498Z,99000.10
2023-01-15T14:50:40.718Z,98997.81
2023-01-15T14:53:36.738Z,98993.70
2023-01-15T14:56:21.298Z,98991.16
2023-01-15T14:59:02.114Z,98993.16
2023-01-15T15:01:47.898Z,98992.27
2023-01-15T15:04:36.353Z,98983.02
2023-01-15T15:07:16.239Z,98980.41
2023-01-15T15:09:55.747Z,98984.42
2023-01-15T15:12:40.134Z,98984.43
2023-01-15T15:15:18.855Z,98985.10
2023-01-15T15:17:59.073Z,98982.77
2023-01-15T15:20:45.993Z,98983.33
2023-01-15T15:23:29.225Z,98981.86
2023-01-15T15:26:05.930Z,98980.45
2023-01-15T15:28:40.650Z,98982.25
2023-01-15T15:31:16.388Z,98980.41
2023-01-15T15:33:50.467Z,98978.30
2023-01-15T15:36:27.998Z,98972.02
2023-01-15T15:39:04.053Z,98973.21
2023-01-15T15:41:57.703Z,98978.48
2023-01-15T15:45:00.136Z,98976.48
2023-01-15T15:47:59.576Z,98972.30
2023-01-15T15:50:39.504Z,98970.79
2023-01-15T15:53:18.738Z,98966.17
2023-01-15T15:55:53.610Z,98969.33
2023-01-15T15:58:33.957Z,98968.29
2023-01-15T16:01:13.143Z,98973.97
2023-01-15T16:03:52.811Z,98965.90
2023-01-15T16:06:29.071Z,98974.79
2023-01-15T16:09:05.159Z,98980.48
2023-01-15T16:11:42.091Z,98981.44
2023-01-15T16:14:19.180Z,98983.84
2023-01-15T16:16:56.776Z,98985.91
2023-01-15T16:19:38.543Z,98986.54
2023-01-15T16:22:20.757Z,98988.83
2023-01-15T16:25:00.191Z,98995.95
2023-01-15T16:27:38.732Z,98997.83
2023-01-15T16:30:20.905Z,98990.65
2023-01-15T16:33:07.631Z,98995.73
2023-01-15T16:35:43.315Z,99002.02
2023-01-15T16:38:23.151Z,99010.30
2023-01-15T16:40:58.434Z,99015.82
2023-01-15T16:43:51.617Z,99014.70
2023-01-15T16:46:32.025Z,99014.99
2023-01-15T16:49:28.581Z,99018.02
2023-01-15T16:52:06.439Z,99020.35
2023-01-15T16:54:52.438Z,99026.82
2023-01-15T16:57:36.967Z,99033.45
2023-01-15T17:00:33.593Z,99035.10
2023-01-15T17:03:16.343Z,99035.10
2023-01-15T17:05:58.755Z,99036.60
2023-01-15T17:08:41.194Z,99041.11
2023-01-15T17:11:24.553Z,99043.02
2023-01-15T17:14:23.149Z,99046.02
2023-01-15T17:17:27.951Z,99047.13
2023-01-15T17:20:05.421Z,99050.39
2023-01-15T17:22:47.904Z,99059.36
2023-01-15T17:25:31.703Z,99058.66
2023-01-15T17:28:13.713Z,99061.20
2023-01-15T17:30:53.598Z,99070.45
2023-01-15T17:33:31.870Z,99075.66
2023-01-15T17:36:09.959Z,99076.11
2023-01-15T17:38:46.355Z,99079.05
2023-01-15T17:41:27.834Z,99084.68
2023-01-15T17:44:05.702Z,99090.45
2023-01-15T17:46:52.475Z,99095.48
2023-01-15T17:49:31.537Z,99100.65
2023-01-15T17:52:23.392Z,99106.38
2023-01-15T17:55:19.038Z,99111.54
2023-01-15T17:58:12.484Z,99123.67
2023-01-15T18:01:06.906Z,99129.89
2023-01-15T18:04:04.883Z,99139.85
2023-01-15T18:06:45.949Z,99134.71
2023-01-15T18:09:27.298Z,99141.66
2023-01-15T18:12:03.923Z,99145.55
2023-01-15T18:14:40.228Z,99142.73
2023-01-15T18:17:16.024Z,99138.82
2023-01-15T18:19:56.498Z,99144.60
2023-01-15T18:22:32.700Z,99146.07
2023-01-15T18:25:16.546Z,99148.52
2023-01-15T18:27:55.353Z,99155.63
2023-01-15T18:30:29.775Z,99159.62
2023-01-15T18:33:06.457Z,99156.22
2023-01-15T18:35:42.229Z,99153.08
2023-01-15T18:38:17.675Z,99158.60
2023-01-15T18:40:55.877Z,99162.83
2023-01-15T18:44:06.564Z,99161.56
2023-01-15T18:46:49.826Z,99168.11
2023-01-15T18:49:26.918Z,99172.50
2023-01-15T18:52:21.284Z,99174.88
2023-01-15T18:54:57.995Z,99171.64
2023-01-15T18:57:37.099Z,99173.41
2023-01-15T19:00:19.104Z,99181.09
2023-01-15T19:02:56.776Z,99185.31
2023-01-15T19:05:33.934Z,99185.20
2023-01-15T19:08:13.215Z,99184.60
2023-01-15T19:10:50.823Z,99184.73
2023-01-15T19:13:28.178Z,99188.74
2023-01-15T19:16:22.200Z,99192.05
2023-01-15T19:19:06.061Z,99194.13
2023-01-15T19:21:47.910Z,99193.91
2023-01-15T19:24:35.414Z,99188.66
2023-01-15T19:27:24.795Z,99182.65
2023-01-15T19:30:01.491Z,99189.08
2023-01-15T19:32:37.811Z,99193.09
2023-01-15T19:35:13.901Z,99192.00
2023-01-15T19:37:54.248Z,99196.44
2023-01-15T19:40:35.429Z,99198.45
2023-01-15T19:43:29.990Z,99201.73
2023-01-15T19:46:26.771Z,99209.25
2023-01-15T19:49:20.621Z,99212.93
2023-01-15T19:52:12.952Z,99212.77
2023-01-15T19:55:00.667Z,99207.56
2023-01-15T19:57:36.425Z,99206.59
2023-01-15T20:00:20.394Z,99209.31
2023-01-15T20:02:57.929Z,99219.11
2023-01-15T20:05:35.544Z,99225.96
2023-01-15T20:08:19.956Z,99226.89
2023-01-15T20:11:04.555Z,99225.13
2023-01-15T20:13:55.779Z,99225.50
2023-01-15T20:16:32.275Z,99220.53
2023-01-15T20:19:11.594Z,99214.48
2023-01-15T20:21:50.029Z,99211.15
2023-01-15T20:24:24.026Z,99202.75
2023-01-15T20:26:59.507Z,99207.77
2023-01-15T20:29:36.001Z,99218.79
2023-01-15T20:32:15.795Z,99218.55
2023-01-15T20:34:54.417Z,99218.20
2023-01-15T20:37:31.316Z,99223.38
2023-01-15T20:40:09.382Z,99228.19
2023-01-15T20:43:03.939Z,99225.26
2023-01-15T20:45:41.621Z,99224.80
2023-01-15T20:48:33.415Z,99219.95
2023-01-15T20:51:20.181Z,99221.61
2023-01-15T20:53:56.706Z,99229.48
2023-01-15T20:56:33.223Z,99228.06
2023-01-15T20:59:11.764Z,99223.88
2023-01-15T21:01:48.043Z,99229.73
2023-01-15T21:04:26.330Z,99230.02
2023-01-15T21:07:02.514Z,99233.63
2023-01-15T21:09:37.743Z,99231.84
2023-01-15T21:12:12.002Z,99233.20
2023-01-15T21:14:47.091Z,99234.37
2023-01-15T21:17:22.763Z,99236.01
2023-01-15T21:19:58.828Z,99242.34
2023-01-15T21:22:35.122Z,99243.23
2023-01-15T21:25:13.759Z,99228.86
2023-01-15T21:27:47.424Z,99232.78
2023-01-15T21:30:21.387Z,99242.93
2023-01-15T21:32:57.513Z,99240.60
2023-01-15T21:35:32.107Z,99236.13
2023-01-15T21:38:09.633Z,99237.57
2023-01-15T21:40:43.987Z,99239.95
2023-01-15T21:43:36.730Z,99233.95
2023-01-15T21:46:10.847Z,99231.52
2023-01-15T21:48:44.645Z,99234.02
2023-01-15T21:51:18.359Z,99233.77
2023-01-15T21:53:52.066Z,99235.84
2023-01-15T21:56:25.417Z,99240.23
2023-01-15T21:58:59.261Z,99243.58
2023-01-15T22:01:33.235Z,99239.93
2023-01-15T22:04:07.317Z,99242.75
2023-01-15T22:06:41.087Z,99243.05
2023-01-15T22:09:14.763Z,99240.04
2023-01-15T22:11:49.474Z,99232.67
2023-01-15T22:14:26.163Z,99231.77
2023-01-15T22:17:01.732Z,99232.38
2023-01-15T22:19:36.121Z,99241.90
2023-01-15T22:22:11.787Z,99239.59
2023-01-15T22:24:45.449Z,99240.15
2023-01-15T22:27:21.053Z,99239.05
2023-01-15T22:29:54.645Z,99232.43
2023-01-15T22:32:28.273Z,99234.55
2023-01-15T22:35:02.121Z,99234.73
2023-01-15T22:37:35.824Z,99233.77
2023-01-15T22:40:11.911Z,99237.27
2023-01-15T22:42:45.389Z,99229.52
2023-01-15T22:45:20.777Z,99235.35
2023-01-15T22:47:54.791Z,99238.16
2023-01-15T22:50:28.392Z,99234.92
2023-01-15T22:53:02.268Z,99233.02
2023-01-15T22:55:36.805Z,99235.48
2023-01-15T22:58:10.350Z,99235.55
2023-01-15T23:00:43.965Z,99240.45
2023-01-15T23:03:17.688Z,99234.95
2023-01-15T23:05:51.149Z,99233.68
2023-01-15T23:08:26.775Z,99233.19
2023-01-15T23:11:00.297Z,99232.48
2023-01-15T23:13:35.622Z,99230.63
2023-01-15T23:16:10.205Z,99227.68
2023-01-15T23:18:43.611Z,99227.48
2023-01-15T23:21:20.016Z,99227.31
2023-01-15T23:23:56.997Z,99227.95
2023-01-15T23:26:33.043Z,99229.22
2023-01-15T23:29:07.257Z,99226.66
2023-01-15T23:31:40.911Z,99221.41
2023-01-15T23:34:14.540Z,99218.30
2023-01-15T23:36:48.173Z,99221.15
2023-01-15T23:39:22.082Z,99218.39
2023-01-15T23:42:13.327Z,99213.00
2023-01-15T23:45:04.527Z,99213.35
2023-01-15T23:47:38.346Z,99216.30
2023-01-15T23:50:13.281Z,99219.58
2023-01-15T23:52:47.774Z,99218.41
2023-01-15T23:55:21.800Z,99222.02
2023-01-15T23:57:55.371Z,99224.11
